Flight Track Log - Related Links

Times and Time Zones

All times are in EDT time to prevent confusion due to time zone crossing. See the N403DM flight status page for this flight to view local times or setup timezone preferences in your user account.

Time Position Orientation Groundspeed Altitude Reporting Facility
EDT Latitude Longitude Course Direction KTS MPH feet Rate Location/Type
Mon 09:48:13 PM 42.2050 -85.2647 167° South 142 163 4,500  Level Chicago Center
Mon 09:49:14 PM 42.1558 -85.2556 172° South 148 170 5,500 829 Climbing Chicago Center
Mon 09:50:16 PM 42.1147 -85.2486 173° South 148 170 6,200 732 Climbing Chicago Center
Mon 09:51:00 PM 42.0459 -85.2125 175° South  Level Estimated
Mon 09:51:17 PM 42.0722 -85.2403 172° South 153 176 7,000  Level Chicago Center
Mon 09:52:00 PM 42.0025 -85.2059 174° South  Level FlightAware Approximate
Mon 09:52:19 PM 42.0239 -85.2317 172° South 174 200 6,900  Level Chicago Center
Mon 09:53:20 PM 41.9739 -85.2219 172° South 180 207 7,000  Climbing Chicago Center
Mon 09:54:22 PM 41.9242 -85.2144 174° South 180 207 6,900  Descending Chicago Center
Mon 09:55:23 PM 41.8744 -85.2056 172° South 179 206 7,000 49 Climbing Chicago Center
Mon 09:56:24 PM 41.8247 -85.1972 173° South 181 208 7,000 -49 Level Chicago Center
Mon 09:57:26 PM 41.7753 -85.1894 173° South 179 206 6,900 -49 Descending Chicago Center
Mon 09:58:27 PM 41.7256 -85.1803 172° South 178 205 6,900 49 Level Chicago Center
Mon 09:59:28 PM 41.6647 -85.1700 173° South 181 208 7,000  Climbing Chicago Center
Mon 10:00:30 PM 41.6142 -85.1639 175° South 182 209 6,900  Descending Chicago Center
Mon 10:01:31 PM 41.5636 -85.1558 173° South 181 208 7,000 98 Climbing Chicago Center
Mon 10:02:33 PM 41.5131 -85.1478 173° South 181 208 7,100 49 Climbing Chicago Center
Mon 10:03:34 PM 41.4628 -85.1397 173° South 182 209 7,100  Level Chicago Center
Mon 10:04:35 PM 41.4125 -85.1311 173° South 181 208 7,100  Level Chicago Center
Mon 10:05:37 PM 41.3631 -85.1239 174° South 180 207 7,100 -49 Level Chicago Center
Mon 10:06:38 PM 41.3133 -85.1147 172° South 180 207 7,000  Descending Chicago Center
Mon 10:07:39 PM 41.2625 -85.1069 173° South 181 208 7,100 49 Climbing Chicago Center
Mon 10:08:41 PM 41.2131 -85.0975 172° South 180 207 7,100 -49 Level Chicago Center
Mon 10:09:42 PM 41.1628 -85.0889 173° South 181 208 7,000  Descending Chicago Center
Mon 10:10:43 PM 41.1033 -85.0767 171° South 181 208 7,100 -146 Climbing Chicago Center
Mon 10:11:45 PM 41.0517 -85.0697 174° South 183 211 6,700 -390 Descending Chicago Center
Mon 10:12:46 PM 40.9981 -85.0592 172° South 191 220 6,300 -443 Descending Chicago Center
Mon 10:13:47 PM 40.9422 -85.0483 172° South 199 229 5,800 -439 Descending Chicago Center
Mon 10:14:49 PM 40.8881 -85.0436 176° South 197 227 5,400 -390 Descending Chicago Center
Mon 10:15:50 PM 40.8350 -85.0353 173° South 194 223 5,000 -443 Descending Chicago Center
Mon 10:16:51 PM 40.7853 -85.0278 173° South 185 213 4,500 -488 Descending Chicago Center
Mon 10:17:53 PM 40.7361 -85.0189 172° South 181 208 4,000 -439 Descending Chicago Center
Mon 10:18:54 PM 40.6867 -85.0103 172° South 180 207 3,600 -443 Descending Chicago Center
Mon 10:19:55 PM 40.6378 -85.0033 174° South 178 205 3,100 -492 Descending Chicago Center

Login

Don't have an account? Register now (free) for customized features, flight alerts, and more!